KJFK

John F Kennedy International Airport

New York, New York, USA
KJFK 161733Z 1618/1724 26008KT P6SM SCT250 FM171400 27013G25KT P6SM SCT250 FM172000 28015G32KT P6SM BKN045
Issued Valid From Valid To
Oct-16 @ 17:33 UTC
(2 hours ago)
Oct-16 @ 18:00 UTC
(an hour ago)
Oct-18 @ 00:00 UTC
(-1 days ago)
Oct-16 @ 18:00 to Oct-17 @ 14:00
KJFK 161733Z 1618/1724 26008KT P6SM SCT250
Wind Visibility Clouds
260° at 8 knots Greater than 6 miles
  • Scattered at 25,000' AGL
From Oct-17 @ 14:00 to Oct-17 @ 20:00
FM171400 27013G25KT P6SM SCT250
Wind Visibility Clouds
270° at 13 knots
 Gusting to 25 knots
Greater than 6 miles
  • Scattered at 25,000' AGL
From Oct-17 @ 20:00 to Oct-18 @ 00:00
FM172000 28015G32KT P6SM BKN045
Wind Visibility Clouds
280° at 15 knots
 Gusting to 32 knots
Greater than 6 miles
  • Broken at 4,500' AGL
KJFK 161733Z 1618/1724 26008KT P6SM SCT250 FM171400 27013G25KT P6SM SCT250 FM172000 28015G32KT P6SM BKN045
Issued Oct-16 @ 17:33 UTC
(2 hours ago)
Valid From Oct-16 @ 18:00 UTC
(an hour ago)
Valid To Oct-18 @ 00:00 UTC
(-1 days ago)
Oct-16 @ 18:00 - Oct-17 @ 14:00
Wind Visibility
260° at 8 knots Greater than 6 miles
Clouds
  • Scattered at 25,000' AGL
From Oct-17 @ 14:00 - Oct-17 @ 20:00
Wind Visibility
270° at 13 knots
 Gusting to 25 knots
Greater than 6 miles
Clouds
  • Scattered at 25,000' AGL
From Oct-17 @ 20:00 - Oct-18 @ 00:00
Wind Visibility
280° at 15 knots
 Gusting to 32 knots
Greater than 6 miles
Clouds
  • Broken at 4,500' AGL